Time;durP1;ratioP1;P1;durP2;ratioP2;P2;SDS_P1;SDS_P2;PMS_P1;PMS_P2;Temp;Humidity;BMP_temperature;BMP_pressure;BME280_temperature;BME280_humidity;BME280_pressure;Samples;Min_cycle;Max_cycle;Signal;HPM_P1;HPM_P2
2022/12/06 00:00:56;;;;;;;7.90;5.80;;;;;;;11.51;79.67;95236.97;5008963;28;20240;-47
2022/12/06 00:03:23;;;;;;;5.97;5.37;;;;;;;11.37;79.76;95204.06;5008950;28;20679;-47
2022/12/06 00:05:50;;;;;;;6.77;5.70;;;;;;;11.48;79.43;95228.75;5009278;28;20323;-48
2022/12/06 00:08:17;;;;;;;7.70;5.80;;;;;;;11.48;79.38;95215.94;5009301;28;20196;-47
2022/12/06 00:10:43;;;;;;;6.77;5.77;;;;;;;11.45;79.33;95211.91;5009422;28;20282;-48
2022/12/06 00:13:12;;;;;;;8.40;6.50;;;;;;;11.46;79.04;95226.31;5008945;28;20683;-47
2022/12/06 00:15:38;;;;;;;8.57;6.30;;;;;;;11.45;79.16;95221.34;5008804;28;20249;-47
2022/12/06 00:18:05;;;;;;;7.03;5.40;;;;;;;11.44;79.13;95224.81;5008784;28;20197;-47
2022/12/06 00:20:33;;;;;;;8.00;6.03;;;;;;;11.44;78.96;95222.25;5008864;28;20247;-48
2022/12/06 00:23:00;;;;;;;6.43;5.37;;;;;;;11.42;78.83;95219.03;5009231;28;20199;-47
2022/12/06 00:25:27;;;;;;;5.80;5.00;;;;;;;11.43;78.82;95218.06;5008799;28;20204;-48
2022/12/06 00:27:53;;;;;;;6.90;5.70;;;;;;;11.43;78.59;95220.63;5009676;28;20180;-49
2022/12/06 00:30:22;;;;;;;6.00;5.40;;;;;;;11.42;78.66;95227.50;5008776;28;20200;-48
2022/12/06 00:32:48;;;;;;;6.57;5.77;;;;;;;11.41;78.61;95225.09;5009245;28;20212;-48
2022/12/06 00:35:15;;;;;;;6.27;5.67;;;;;;;11.40;78.51;95224.28;5010325;28;20262;-47
2022/12/06 00:37:42;;;;;;;8.67;5.83;;;;;;;11.41;78.38;95225.09;5012536;28;20203;-47
2022/12/06 00:40:09;;;;;;;6.63;5.97;;;;;;;11.39;78.33;95227.75;5012478;28;20196;-48
2022/12/06 00:42:36;;;;;;;7.43;5.97;;;;;;;11.41;78.32;95232.78;5012807;28;20192;-47
2022/12/06 00:45:04;;;;;;;6.03;5.27;;;;;;;11.40;78.13;95226.84;5011870;28;20204;-48
2022/12/06 00:47:32;;;;;;;7.70;6.27;;;;;;;11.40;77.94;95221.72;5012248;28;20804;-47
2022/12/06 00:49:59;;;;;;;6.30;5.60;;;;;;;11.40;78.05;95218.34;5011643;28;20184;-48
2022/12/06 00:52:25;;;;;;;7.67;6.10;;;;;;;11.22;77.75;95195.91;5012029;28;20286;-48
2022/12/06 00:54:52;;;;;;;6.47;5.77;;;;;;;11.36;78.04;95210.13;5012334;28;20203;-48
2022/12/06 00:57:19;;;;;;;7.90;5.23;;;;;;;11.25;77.85;95187.16;5011555;28;20607;-48
2022/12/06 00:59:46;;;;;;;6.00;5.30;;;;;;;11.34;77.94;95209.44;5011873;28;20188;-47
2022/12/06 01:02:13;;;;;;;6.03;5.43;;;;;;;11.30;77.86;95201.19;5011666;28;20671;-48
2022/12/06 01:04:41;;;;;;;6.73;5.63;;;;;;;11.32;77.90;95208.75;5012097;28;20700;-46
2022/12/06 01:07:08;;;;;;;5.90;5.30;;;;;;;11.32;78.03;95208.75;5011839;28;20234;-47
2022/12/06 01:09:34;;;;;;;5.00;4.50;;;;;;;11.31;77.77;95202.00;5011878;28;20204;-48
2022/12/06 01:12:01;;;;;;;6.73;5.07;;;;;;;11.30;77.80;95205.50;5011664;28;20228;-48
2022/12/06 01:14:28;;;;;;;6.33;5.60;;;;;;;11.30;77.71;95196.06;5011842;28;20192;-46
2022/12/06 01:16:55;;;;;;;5.53;5.03;;;;;;;11.30;77.55;95195.25;5011592;28;20181;-47
2022/12/06 01:19:21;;;;;;;7.83;5.17;;;;;;;11.30;77.50;95185.03;5011572;28;20180;-47
2022/12/06 01:21:50;;;;;;;7.97;5.53;;;;;;;11.30;77.40;95197.81;5011820;28;20258;-47
2022/12/06 01:24:16;;;;;;;8.50;5.77;;;;;;;11.30;77.54;95188.38;5011762;28;20278;-47
2022/12/06 01:26:43;;;;;;;7.93;6.17;;;;;;;11.31;77.52;95186.63;5011990;28;20200;-46
2022/12/06 01:29:10;;;;;;;7.17;6.20;;;;;;;11.30;77.35;95185.81;5011265;28;20185;-46
2022/12/06 01:31:38;;;;;;;6.27;5.63;;;;;;;11.26;77.38;95173.41;5011552;28;20228;-46
2022/12/06 01:34:05;;;;;;;8.33;6.13;;;;;;;11.32;77.33;95184.91;5011118;28;20184;-46
2022/12/06 01:36:32;;;;;;;7.73;5.60;;;;;;;11.32;77.34;95183.16;5011532;28;20204;-47
2022/12/06 01:39:05;;;;;;;6.60;5.30;;;;;;;11.32;77.17;95183.16;5010853;28;20215;-47
2022/12/06 01:41:32;;;;;;;6.43;5.73;;;;;;;11.32;77.13;95180.59;5011376;28;20188;-47
2022/12/06 01:43:59;;;;;;;7.20;5.53;;;;;;;11.33;77.25;95179.66;5011164;28;20191;-46
2022/12/06 01:46:31;;;;;;;6.23;5.53;;;;;;;11.28;77.21;95164.69;5009266;28;20204;-46
2022/12/06 01:49:06;;;;;;;8.20;5.80;;;;;;;11.30;77.14;95175.59;5010617;28;20605;-46
2022/12/06 01:51:33;;;;;;;5.33;4.83;;;;;;;11.32;77.14;95180.59;5011086;28;20230;-47
2022/12/06 01:54:03;;;;;;;5.87;5.27;;;;;;;11.33;76.99;95177.09;5010780;28;20239;-47
2022/12/06 01:56:31;;;;;;;6.93;4.80;;;;;;;11.33;76.98;95178.84;5011166;28;20224;-47
2022/12/06 01:58:59;;;;;;;6.37;5.63;;;;;;;11.32;77.15;95179.78;5011023;28;20184;-47
2022/12/06 02:01:28;;;;;;;6.57;5.40;;;;;;;11.32;76.94;95175.47;5010856;28;20580;-47
2022/12/06 02:03:56;;;;;;;5.83;5.33;;;;;;;11.31;76.98;95171.25;5010508;28;20199;-47
2022/12/06 02:06:24;;;;;;;6.00;5.40;;;;;;;11.28;76.96;95163.88;5011386;28;20189;-47
2022/12/06 02:08:53;;;;;;;7.10;6.07;;;;;;;11.30;76.86;95167.91;5010865;28;20272;-48
2022/12/06 02:11:21;;;;;;;6.17;4.93;;;;;;;11.30;76.96;95161.97;5011084;28;20217;-47
2022/12/06 02:13:48;;;;;;;6.57;5.57;;;;;;;11.19;77.13;95146.72;5010627;28;20196;-47
2022/12/06 02:16:38;;;;;;;6.47;5.40;;;;;;;11.28;77.09;95161.31;5010472;28;20192;-47
2022/12/06 02:19:24;;;;;;;6.20;4.97;;;;;;;11.26;76.83;95156.28;5010674;28;20199;-48
2022/12/06 02:21:58;;;;;;;6.33;5.67;;;;;;;11.25;76.94;95147.00;5010917;28;20185;-47
2022/12/06 02:24:42;;;;;;;6.70;6.00;;;;;;;11.22;76.86;95154.94;5010328;28;20196;-48
2022/12/06 02:27:30;;;;;;;6.23;4.97;;;;;;;11.22;76.92;95143.88;5009895;28;20192;-47
2022/12/06 02:30:12;;;;;;;8.60;5.33;;;;;;;11.24;77.04;95155.63;5010287;28;20688;-48
2022/12/06 02:32:47;;;;;;;6.60;5.90;;;;;;;11.23;77.22;95151.47;5010284;28;20216;-48
2022/12/06 02:35:25;;;;;;;6.43;5.27;;;;;;;11.23;76.85;95151.47;5010300;28;20720;-48
2022/12/06 02:37:57;;;;;;;6.23;5.60;;;;;;;11.23;76.82;95143.78;5009891;28;20192;-48
2022/12/06 02:40:31;;;;;;;4.97;4.50;;;;;;;11.21;76.91;95140.53;5010430;28;20230;-47
2022/12/06 02:43:02;;;;;;;6.97;5.20;;;;;;;11.04;76.69;95107.88;5010379;28;20838;-47
2022/12/06 02:45:37;;;;;;;6.03;5.20;;;;;;;11.24;76.84;95137.72;5009616;28;20745;-48
2022/12/06 02:48:08;;;;;;;5.07;4.50;;;;;;;11.24;76.81;95132.59;5010299;28;20196;-49
2022/12/06 02:50:40;;;;;;;8.43;5.67;;;;;;;11.23;76.86;95128.41;5009649;28;20671;-48
2022/12/06 02:53:12;;;;;;;5.30;4.70;;;;;;;11.12;76.93;95114.91;5010501;28;20212;-47
2022/12/06 02:55:41;;;;;;;5.40;4.87;;;;;;;11.23;76.85;95135.28;5009530;28;20232;-46
2022/12/06 02:58:08;;;;;;;5.80;5.13;;;;;;;11.00;76.62;95098.84;5010236;28;20192;-47
2022/12/06 03:00:38;;;;;;;5.63;4.90;;;;;;;11.24;76.86;95126.66;5010063;28;20200;-47
2022/12/06 03:03:20;;;;;;;6.07;5.20;;;;;;;11.09;76.79;95110.03;5009765;28;20203;-48
2022/12/06 03:06:03;;;;;;;6.03;4.90;;;;;;;11.22;76.62;95128.53;5010005;28;20220;-47
2022/12/06 03:08:38;;;;;;;5.57;4.97;;;;;;;11.21;76.57;95132.03;5010019;28;20196;-48
2022/12/06 03:11:05;;;;;;;6.30;5.37;;;;;;;11.19;76.78;95132.19;5009759;28;20607;-47
2022/12/06 03:13:40;;;;;;;7.97;5.87;;;;;;;11.21;76.72;95134.59;5009826;28;20232;-47
2022/12/06 03:16:17;;;;;;;6.20;5.47;;;;;;;11.21;76.57;95134.59;5009274;28;20192;-48
2022/12/06 03:18:50;;;;;;;7.80;5.80;;;;;;;11.21;76.64;95127.72;5009630;28;20199;-49
2022/12/06 03:21:21;;;;;;;6.40;5.17;;;;;;;11.22;76.56;95131.09;5009489;28;20227;-48
2022/12/06 03:23:50;;;;;;;4.77;4.37;;;;;;;11.24;76.43;95139.47;5009721;28;20235;-48
2022/12/06 03:26:21;;;;;;;6.40;5.30;;;;;;;11.21;76.57;95129.47;5009431;28;20707;-47
2022/12/06 03:28:51;;;;;;;7.00;5.60;;;;;;;11.23;76.49;95136.09;5009963;28;20199;-47
2022/12/06 03:31:21;;;;;;;5.17;4.67;;;;;;;11.23;76.65;95128.41;5008607;28;20192;-47
2022/12/06 03:33:54;;;;;;;5.50;4.90;;;;;;;11.24;76.51;95135.16;5009102;28;20188;-48
2022/12/06 03:36:22;;;;;;;6.80;5.57;;;;;;;11.25;76.51;95123.16;5009593;28;20192;-48
2022/12/06 03:38:53;;;;;;;6.37;5.63;;;;;;;11.26;76.35;95119.66;5009664;28;20203;-48
2022/12/06 03:41:25;;;;;;;6.60;5.73;;;;;;;11.26;76.37;95115.34;5009509;28;20236;-48
2022/12/06 03:43:51;;;;;;;5.20;4.70;;;;;;;11.27;76.39;95121.28;5009476;28;20671;-49
2022/12/06 03:46:24;;;;;;;5.73;4.73;;;;;;;11.27;76.33;95108.50;5008927;28;20243;-47
2022/12/06 03:48:55;;;;;;;6.40;5.13;;;;;;;11.27;76.24;95114.41;5009012;28;20207;-48
2022/12/06 03:51:25;;;;;;;5.50;4.77;;;;;;;11.28;76.19;95113.47;5009354;28;20180;-48
2022/12/06 03:53:54;;;;;;;5.60;5.03;;;;;;;11.28;76.26;95116.03;5008962;28;20200;-47
2022/12/06 03:56:22;;;;;;;5.50;5.00;;;;;;;11.10;76.30;95086.88;5008675;28;20716;-47
2022/12/06 03:58:49;;;;;;;6.17;5.57;;;;;;;11.28;76.11;95107.53;5009219;28;20192;-47
2022/12/06 04:01:16;;;;;;;7.13;5.13;;;;;;;11.29;76.30;95109.16;5009172;28;20192;-49
2022/12/06 04:03:42;;;;;;;8.13;5.23;;;;;;;11.29;76.38;95107.41;5008791;28;20694;-47
2022/12/06 04:06:11;;;;;;;6.10;5.00;;;;;;;11.26;76.26;95099.16;5009242;28;20192;-47
2022/12/06 04:08:38;;;;;;;5.53;4.90;;;;;;;11.28;76.30;95104.97;5009341;28;20694;-47
2022/12/06 04:11:05;;;;;;;5.27;4.77;;;;;;;11.25;76.33;95106.03;5012151;28;20199;-48
2022/12/06 04:13:34;;;;;;;5.77;5.17;;;;;;;11.14;76.37;95087.41;5013077;28;20219;-47
2022/12/06 04:16:02;;;;;;;5.60;5.00;;;;;;;11.25;76.36;95102.69;5012510;28;20687;-47
2022/12/06 04:18:28;;;;;;;5.57;4.97;;;;;;;11.27;76.37;95111.84;5012969;28;20711;-46
2022/12/06 04:23:47;;;;;;;5.23;4.70;;;;;;;11.27;76.29;95111.84;5013001;28;20695;-48
2022/12/06 04:26:16;;;;;;;5.87;5.27;;;;;;;11.28;76.23;95116.03;5012301;28;20200;-47
2022/12/06 04:39:43;;;;;;;10.20;7.00;;;;;;;11.27;76.48;95111.84;5012357;28;20276;-48
2022/12/06 04:44:56;;;;;;;9.67;7.40;;;;;;;11.23;76.53;95105.38;5012220;28;20290;-48
2022/12/06 04:47:23;;;;;;;8.57;6.50;;;;;;;11.25;76.55;95110.34;5012466;28;20655;-48
2022/12/06 04:49:50;;;;;;;10.57;8.27;;;;;;;11.25;76.65;95107.78;5012111;28;20184;-48
2022/12/06 04:52:17;;;;;;;10.77;9.13;;;;;;;11.14;76.70;95093.38;5012395;28;20219;-48
2022/12/06 04:54:46;;;;;;;12.93;8.57;;;;;;;11.22;76.62;95111.41;5012769;28;20192;-49
2022/12/06 04:57:14;;;;;;;11.07;8.97;;;;;;;11.26;76.63;95117.09;5012620;28;20236;-49
2022/12/06 04:59:43;;;;;;;15.90;10.17;;;;;;;11.25;76.55;95108.59;5011890;28;20648;-48
2022/12/06 05:02:12;;;;;;;16.77;10.03;;;;;;;11.26;76.53;95117.91;5011768;28;20192;-48
2022/12/06 05:04:39;;;;;;;14.07;9.93;;;;;;;11.23;76.53;95109.69;5011669;28;20620;-48
2022/12/06 05:07:06;;;;;;;12.17;9.60;;;;;;;11.27;76.70;95116.97;5011980;28;20238;-48
2022/12/06 05:09:33;;;;;;;14.57;9.80;;;;;;;11.27;76.72;95116.97;5011666;28;20196;-49
2022/12/06 05:12:01;;;;;;;15.57;11.13;;;;;;;11.26;76.52;95107.66;5011622;28;20279;-48
2022/12/06 05:14:28;;;;;;;13.90;10.30;;;;;;;11.28;76.81;95107.53;5011839;28;20193;-47
2022/12/06 05:16:55;;;;;;;15.07;11.40;;;;;;;11.28;76.76;95103.22;5011344;28;20255;-47
2022/12/06 05:19:22;;;;;;;15.93;11.07;;;;;;;11.24;76.83;95101.06;5012208;28;20383;-48
2022/12/06 05:21:48;;;;;;;13.77;10.07;;;;;;;11.29;76.61;95104.03;5009745;28;20643;-48
2022/12/06 05:24:15;;;;;;;17.37;11.57;;;;;;;11.30;76.68;95105.66;5011787;28;20247;-48
2022/12/06 05:26:42;;;;;;;14.40;10.73;;;;;;;11.30;76.66;95109.00;5011157;28;20275;-47
2022/12/06 05:29:10;;;;;;;14.53;10.87;;;;;;;11.30;76.74;95109.00;5011174;28;20555;-48
2022/12/06 05:31:37;;;;;;;14.43;11.43;;;;;;;11.27;76.73;95108.50;5010952;28;20196;-48
2022/12/06 05:34:04;;;;;;;16.43;11.17;;;;;;;11.23;76.54;95096.88;5011595;28;20216;-48
2022/12/06 05:36:30;;;;;;;11.60;9.83;;;;;;;11.28;76.69;95113.47;5011269;28;20188;-50
2022/12/06 05:38:57;;;;;;;12.80;9.40;;;;;;;11.28;76.84;95105.78;5011658;28;20786;-47
2022/12/06 05:41:24;;;;;;;13.93;9.40;;;;;;;11.30;76.84;95110.75;5011009;28;20266;-47
2022/12/06 05:43:51;;;;;;;10.60;8.53;;;;;;;11.27;76.62;95114.41;5011221;28;20196;-48
2022/12/06 05:46:19;;;;;;;11.03;8.53;;;;;;;11.29;76.69;95101.47;5011140;28;20184;-47
2022/12/06 05:48:46;;;;;;;16.13;8.50;;;;;;;11.27;76.64;95105.94;5011182;28;20214;-47
2022/12/06 05:51:13;;;;;;;10.77;8.67;;;;;;;11.30;76.56;95103.88;5011217;28;20247;-48
2022/12/06 05:53:40;;;;;;;10.47;9.10;;;;;;;11.31;76.69;95091.91;5011530;28;20216;-48
2022/12/06 05:56:09;;;;;;;10.13;8.10;;;;;;;11.30;76.56;95098.78;5010779;28;20693;-49
2022/12/06 05:58:36;;;;;;;11.60;8.90;;;;;;;11.32;76.54;95098.66;5010968;28;20192;-49
2022/12/06 06:01:03;;;;;;;12.87;8.17;;;;;;;11.28;76.54;95092.19;5010838;28;20196;-48
2022/12/06 06:03:31;;;;;;;12.83;8.43;;;;;;;11.32;76.42;95096.09;5010637;28;20196;-49
2022/12/06 06:06:00;;;;;;;10.50;6.53;;;;;;;11.34;78.79;95089.06;5011051;28;20812;-48
2022/12/06 06:08:28;;;;;;;9.93;3.60;;;;;;;11.86;100.00;95099.94;5011187;28;20184;-48
2022/12/06 06:10:54;;;;;;;6.73;4.47;;;;;;;12.51;100.00;95080.38;5011147;28;20188;-47
2022/12/06 06:13:21;;;;;;;6.03;4.27;;;;;;;13.15;100.00;95083.91;5010827;28;20216;-48
2022/12/06 06:15:49;;;;;;;5.93;4.43;;;;;;;13.75;100.00;95085.97;5011292;28;20416;-48
2022/12/06 06:18:16;;;;;;;7.80;3.83;;;;;;;14.28;100.00;95096.19;5010697;28;20283;-48
2022/12/06 06:20:48;;;;;;;6.77;4.70;;;;;;;14.57;99.39;95092.56;5010824;28;20188;-49
2022/12/06 06:23:15;;;;;;;6.50;4.67;;;;;;;14.67;96.98;95102.72;5010578;28;20196;-47
2022/12/06 06:25:41;;;;;;;4.77;4.37;;;;;;;14.63;94.94;95106.56;5010717;28;20203;-48
2022/12/06 06:28:08;;;;;;;11.87;5.30;;;;;;;14.54;93.22;95111.66;5010265;28;20192;-48
2022/12/06 06:30:35;;;;;;;6.87;4.40;;;;;;;14.44;91.58;95105.78;5010702;28;20258;-49
2022/12/06 06:33:02;;;;;;;7.47;4.67;;;;;;;14.33;89.84;95118.88;5009915;28;20562;-47
2022/12/06 06:35:29;;;;;;;5.60;4.53;;;;;;;14.21;88.53;95113.19;5010757;28;20632;-49
2022/12/06 06:37:57;;;;;;;6.33;4.33;;;;;;;14.11;87.39;95106.50;5010475;28;20196;-48
2022/12/06 06:40:24;;;;;;;5.53;4.63;;;;;;;13.98;86.28;95099.16;5010093;28;20199;-49
2022/12/06 06:42:51;;;;;;;5.50;4.77;;;;;;;13.86;85.53;95095.22;5010284;28;20189;-48
2022/12/06 06:45:17;;;;;;;7.17;5.10;;;;;;;13.71;84.94;95093.16;5009785;28;20184;-48
2022/12/06 06:47:44;;;;;;;7.50;4.83;;;;;;;13.64;84.42;95096.47;5010122;28;20204;-48
2022/12/06 06:50:12;;;;;;;6.67;5.10;;;;;;;13.59;84.12;95106.38;5010077;28;20201;-47
2022/12/06 06:52:39;;;;;;;9.30;5.23;;;;;;;13.50;83.73;95096.00;5010241;28;20228;-48
2022/12/06 06:55:08;;;;;;;5.50;4.97;;;;;;;13.41;83.57;95085.81;5009988;28;20196;-47
2022/12/06 06:57:35;;;;;;;8.90;5.50;;;;;;;13.36;83.28;95093.16;4990763;28;20201;-48
2022/12/06 07:00:02;;;;;;;7.63;5.53;;;;;;;13.28;83.07;95096.44;4990626;28;20676;-47
2022/12/06 07:02:29;;;;;;;8.27;4.63;;;;;;;13.22;82.79;95097.81;4990354;28;20204;-47
2022/12/06 07:04:55;;;;;;;6.57;5.10;;;;;;;13.16;82.47;95097.53;4990337;28;20185;-49
2022/12/06 07:07:22;;;;;;;7.00;5.53;;;;;;;13.10;82.30;95093.78;4990531;28;20189;-47
2022/12/06 07:09:49;;;;;;;7.90;5.30;;;;;;;13.05;82.05;95099.38;4990350;28;20197;-48
2022/12/06 07:12:17;;;;;;;7.30;5.77;;;;;;;13.01;81.64;95100.59;4990532;28;20704;-48
2022/12/06 07:14:45;;;;;;;6.20;5.03;;;;;;;12.98;81.63;95100.06;4990497;28;20673;-47
2022/12/06 07:17:12;;;;;;;6.77;5.30;;;;;;;12.95;81.62;95090.06;4989965;28;20284;-49
2022/12/06 07:19:39;;;;;;;8.80;5.93;;;;;;;12.92;81.30;95090.38;4990311;28;20189;-47
2022/12/06 07:22:05;;;;;;;7.10;5.67;;;;;;;12.88;81.32;95089.84;4990024;28;20717;-48
2022/12/06 07:24:32;;;;;;;8.47;5.67;;;;;;;12.88;81.07;95092.41;4990001;28;20239;-47
2022/12/06 07:26:59;;;;;;;8.00;6.07;;;;;;;12.88;80.84;95096.75;4990282;28;20193;-50
2022/12/06 07:29:27;;;;;;;9.40;5.77;;;;;;;12.88;80.80;95096.75;4990391;28;20207;-48
2022/12/06 07:31:54;;;;;;;7.60;5.73;;;;;;;12.88;80.48;95094.19;4990137;28;20189;-48
2022/12/06 07:34:22;;;;;;;9.40;5.60;;;;;;;12.88;80.22;95089.03;4989703;28;20228;-47
2022/12/06 07:36:49;;;;;;;7.77;5.27;;;;;;;12.89;80.01;95088.09;4990127;28;20218;-48
2022/12/06 07:39:15;;;;;;;9.00;5.70;;;;;;;12.93;79.86;95092.00;4989756;28;20198;-49
2022/12/06 07:47:12;;;;;;;11.27;6.43;;;;;;;13.00;79.04;95090.47;4989793;28;20327;-48
2022/12/06 07:49:39;;;;;;;7.77;5.27;;;;;;;13.01;79.02;95087.75;4989645;28;20200;-47
2022/12/06 07:52:06;;;;;;;8.00;5.90;;;;;;;13.03;78.95;95085.84;4989876;28;20185;-47
2022/12/06 07:54:32;;;;;;;9.93;5.83;;;;;;;12.94;78.70;95070.50;4989973;28;20229;-48
2022/12/06 07:56:59;;;;;;;8.23;6.37;;;;;;;13.06;78.55;95095.03;5004477;28;20228;-47
2022/12/06 07:59:28;;;;;;;8.47;6.77;;;;;;;13.10;78.67;95095.56;5009252;28;20193;-48
2022/12/06 08:01:54;;;;;;;9.97;6.10;;;;;;;13.11;78.48;95092.03;5009663;28;20188;-48
2022/12/06 08:04:21;;;;;;;6.97;5.50;;;;;;;13.13;78.30;95097.84;5009295;28;20200;-48
2022/12/06 08:06:48;;;;;;;7.63;6.13;;;;;;;13.13;78.22;95092.72;5008966;28;20757;-47
2022/12/06 08:09:15;;;;;;;8.67;6.27;;;;;;;13.18;77.98;95099.03;5009385;28;20189;-49
2022/12/06 08:11:42;;;;;;;9.93;6.57;;;;;;;13.21;77.87;95096.19;5009269;28;20742;-48
2022/12/06 08:14:09;;;;;;;9.27;6.80;;;;;;;13.23;77.61;95096.88;5009009;28;20215;-47
2022/12/06 08:16:37;;;;;;;11.10;6.03;;;;;;;13.29;77.64;95091.13;5009116;28;20188;-48
2022/12/06 08:19:04;;;;;;;8.03;6.47;;;;;;;13.32;77.51;95091.81;5008780;28;20246;-48
2022/12/06 08:21:31;;;;;;;8.77;6.63;;;;;;;13.32;77.19;95077.22;5009074;28;20247;-48
2022/12/06 08:23:58;;;;;;;8.90;6.97;;;;;;;13.43;77.10;95086.50;5009182;28;20189;-46
2022/12/06 08:26:25;;;;;;;7.63;5.93;;;;;;;13.45;76.74;95084.56;5009014;28;20185;-50
2022/12/06 08:28:52;;;;;;;9.63;6.10;;;;;;;13.49;76.61;95084.13;5009055;28;20188;-47
2022/12/06 08:31:21;;;;;;;10.93;6.60;;;;;;;13.49;76.65;95080.75;5008917;28;20196;-46
2022/12/06 08:33:50;;;;;;;17.40;6.93;;;;;;;13.50;76.70;95083.16;5008556;28;20228;-47
2022/12/06 08:36:19;;;;;;;14.07;7.10;;;;;;;13.30;76.51;95049.13;5008878;28;20203;-48
2022/12/06 08:38:47;;;;;;;8.30;6.33;;;;;;;13.52;76.25;95083.84;5009144;28;20192;-48
2022/12/06 08:44:01;;;;;;;7.77;6.07;;;;;;;13.53;76.07;95082.88;5008703;28;20192;-49
2022/12/06 08:46:29;;;;;;;7.37;6.50;;;;;;;13.54;76.18;95083.69;5008804;28;20192;-48
2022/12/06 08:48:58;;;;;;;8.43;6.40;;;;;;;13.39;76.01;95060.28;5008473;28;20246;-47
2022/12/06 08:51:24;;;;;;;8.27;6.40;;;;;;;13.54;76.08;95092.19;5009031;28;20197;-48
2022/12/06 08:53:53;;;;;;;7.27;6.33;;;;;;;13.53;76.01;95082.88;5008467;28;20239;-48
2022/12/06 08:56:20;;;;;;;8.00;6.57;;;;;;;13.54;76.13;95086.25;5010771;28;20235;-47
2022/12/06 08:58:46;;;;;;;9.87;6.27;;;;;;;13.49;76.03;95073.84;5012387;28;20203;-47
2022/12/06 09:01:19;;;;;;;7.30;6.20;;;;;;;13.57;75.98;95088.53;5012162;28;20196;-48
2022/12/06 09:03:45;;;;;;;6.30;5.70;;;;;;;13.59;75.96;95072.97;5012031;28;20664;-48
2022/12/06 09:06:14;;;;;;;8.93;6.40;;;;;;;13.62;75.92;95075.25;5012357;28;20202;-48
2022/12/06 09:08:41;;;;;;;8.40;6.27;;;;;;;13.48;75.73;95046.53;5011983;28;20664;-47
2022/12/06 09:11:09;;;;;;;10.30;6.40;;;;;;;13.69;75.58;95063.44;5012072;28;20199;-47
2022/12/06 09:13:37;;;;;;;10.60;6.53;;;;;;;13.69;75.75;95048.03;5012045;28;20878;-48
2022/12/06 09:16:06;;;;;;;9.10;6.53;;;;;;;13.76;75.55;95042.13;5011803;28;20196;-49
2022/12/06 09:18:33;;;;;;;8.77;6.53;;;;;;;13.77;75.56;95040.34;5012368;28;20196;-49
2022/12/06 09:21:00;;;;;;;8.60;6.57;;;;;;;13.82;75.43;95030.44;5011693;28;20307;-48
2022/12/06 09:23:28;;;;;;;9.73;6.30;;;;;;;13.86;75.39;95030.94;5011625;28;20184;-47
2022/12/06 09:25:55;;;;;;;6.57;5.90;;;;;;;13.91;75.32;95028.75;5011451;28;20236;-47
2022/12/06 09:28:21;;;;;;;9.40;6.63;;;;;;;13.95;75.23;95025.72;5011599;28;20184;-49
2022/12/06 09:30:48;;;;;;;8.40;6.43;;;;;;;13.99;75.05;95014.19;5011453;28;20188;-48
2022/12/06 09:33:15;;;;;;;10.07;7.03;;;;;;;14.03;75.01;95005.22;5011748;28;20215;-50
2022/12/06 09:35:42;;;;;;;7.37;6.60;;;;;;;13.94;74.92;94974.44;5011618;28;20192;-47
2022/12/06 09:38:09;;;;;;;13.43;6.47;;;;;;;14.13;74.84;94991.44;5011624;28;20203;-47
2022/12/06 09:40:46;;;;;;;7.90;6.40;;;;;;;14.19;74.72;94977.97;5011638;28;20192;-47
2022/12/06 09:43:27;;;;;;;8.63;6.57;;;;;;;14.24;74.58;94976.53;5011407;28;20647;-46
2022/12/06 09:46:19;;;;;;;11.57;6.67;;;;;;;14.29;74.35;94982.06;5011269;28;20659;-48
2022/12/06 09:49:08;;;;;;;8.80;6.70;;;;;;;14.32;74.39;94975.78;5011182;28;20283;-47
2022/12/06 09:52:03;;;;;;;9.33;7.10;;;;;;;14.38;74.06;94982.06;5011152;28;20188;-48
2022/12/06 09:54:44;;;;;;;7.67;6.33;;;;;;;14.36;74.02;94982.22;5010868;28;20208;-47
2022/12/06 09:57:18;;;;;;;11.53;7.30;;;;;;;14.39;74.11;94976.78;5010694;28;20703;-47
2022/12/06 09:59:55;;;;;;;8.47;6.63;;;;;;;14.40;74.13;94978.41;5011313;28;20199;-48
2022/12/06 10:02:37;;;;;;;11.37;6.50;;;;;;;14.38;74.10;94964.88;5010951;28;20184;-48
2022/12/06 10:05:33;;;;;;;10.13;7.03;;;;;;;14.41;74.03;94961.19;5011235;28;20204;-49
2022/12/06 10:08:10;;;;;;;10.10;6.43;;;;;;;14.39;73.93;94947.69;4988505;28;20212;-48
2022/12/06 10:10:51;;;;;;;8.33;5.83;;;;;;;14.43;73.90;94951.56;4988711;28;20193;-48
2022/12/06 10:13:27;;;;;;;7.70;6.67;;;;;;;14.47;73.84;94952.88;4989154;28;20197;-49
2022/12/06 10:16:05;;;;;;;10.60;6.47;;;;;;;14.51;73.83;94938.75;4988779;28;20711;-47
2022/12/06 10:18:55;;;;;;;12.23;6.80;;;;;;;14.59;73.61;94932.81;4989022;28;20213;-50
2022/12/06 10:21:34;;;;;;;8.63;7.27;;;;;;;14.64;73.26;94928.03;4989023;28;20692;-48
2022/12/06 10:24:16;;;;;;;8.87;7.00;;;;;;;14.69;73.22;94921.44;4988757;28;20321;-48
2022/12/06 10:26:48;;;;;;;9.93;7.17;;;;;;;14.74;73.23;94918.38;4988886;28;20188;-48
2022/12/06 10:29:21;;;;;;;9.87;7.23;;;;;;;14.72;72.80;94912.56;4988839;28;20335;-49
2022/12/06 10:31:56;;;;;;;9.60;7.10;;;;;;;14.67;72.92;94897.59;4988981;28;20204;-47
2022/12/06 10:34:32;;;;;;;11.73;7.57;;;;;;;14.84;72.64;94913.88;4988459;28;20320;-48
2022/12/06 10:37:06;;;;;;;10.07;7.20;;;;;;;14.86;72.54;94919.69;4988937;28;20790;-49
2022/12/06 10:39:44;;;;;;;12.70;8.40;;;;;;;14.95;72.70;94920.53;4988683;28;20192;-49
2022/12/06 10:42:16;;;;;;;9.97;7.27;;;;;;;14.98;72.59;94926.16;4988691;28;20185;-49
2022/12/06 10:44:48;;;;;;;8.50;6.70;;;;;;;14.99;72.51;94922.63;5001282;28;20188;-49
2022/12/06 10:47:18;;;;;;;10.67;7.10;;;;;;;15.03;72.38;94917.97;5010617;28;20192;-47
2022/12/06 10:49:52;;;;;;;10.83;7.57;;;;;;;14.95;72.35;94898.16;5009862;28;20695;-48
2022/12/06 10:52:36;;;;;;;8.80;7.00;;;;;;;15.15;72.40;94915.84;5010296;28;20734;-48
2022/12/06 10:55:22;;;;;;;10.60;7.40;;;;;;;15.21;72.00;94910.09;5010107;28;20216;-49
2022/12/06 10:57:56;;;;;;;10.70;7.87;;;;;;;15.25;71.89;94907.03;5009974;28;20195;-48
2022/12/06 11:00:25;;;;;;;11.57;7.07;;;;;;;15.35;71.57;94900.91;5010108;28;20192;-48
2022/12/06 11:03:00;;;;;;;12.67;7.60;;;;;;;15.42;71.32;94894.94;5009854;28;20196;-49
2022/12/06 11:05:32;;;;;;;10.73;7.70;;;;;;;15.51;71.28;94883.66;5009756;28;20195;-47
2022/12/06 11:08:07;;;;;;;8.43;7.33;;;;;;;15.59;70.95;94869.13;5009480;28;20200;-48
2022/12/06 11:10:35;;;;;;;10.47;7.73;;;;;;;15.77;70.63;94874.94;5010115;28;20188;-49
2022/12/06 11:13:16;;;;;;;10.27;7.60;;;;;;;15.95;70.20;94874.72;5009985;28;20512;-48
2022/12/06 11:15:51;;;;;;;9.93;7.40;;;;;;;16.17;69.60;94868.03;5009560;28;20228;-49
2022/12/06 11:18:18;;;;;;;8.07;7.13;;;;;;;16.30;69.42;94861.34;5010039;28;20190;-46
2022/12/06 11:20:51;;;;;;;12.33;7.63;;;;;;;16.50;69.29;94871.28;5009740;28;20196;-48
2022/12/06 11:23:25;;;;;;;9.93;7.43;;;;;;;16.60;68.90;94871.06;5010017;28;20202;-48
2022/12/06 11:26:11;;;;;;;8.57;7.40;;;;;;;16.62;68.81;94864.72;5009505;28;20658;-48
2022/12/06 11:28:40;;;;;;;8.97;7.30;;;;;;;16.62;68.96;94863.94;5009920;28;20192;-48
2022/12/06 11:31:19;;;;;;;13.37;7.03;;;;;;;16.65;68.93;94856.66;5009594;28;20192;-47
2022/12/06 11:33:46;;;;;;;8.93;7.30;;;;;;;16.71;68.70;94855.16;5009558;28;20512;-47
2022/12/06 11:36:12;;;;;;;11.93;7.23;;;;;;;16.77;68.44;94860.47;5009316;28;20195;-47
2022/12/06 11:38:42;;;;;;;14.73;8.33;;;;;;;16.84;68.30;94865.78;5009711;28;20196;-49
2022/12/06 11:41:14;;;;;;;10.77;7.97;;;;;;;16.86;68.26;94866.41;5009758;28;20181;-49
2022/12/06 11:43:41;;;;;;;11.83;7.83;;;;;;;16.83;68.38;94858.97;5009990;28;20279;-47
2022/12/06 11:46:11;;;;;;;11.50;7.80;;;;;;;16.85;68.49;94862.22;5009550;28;20196;-48
2022/12/06 11:48:38;;;;;;;10.13;7.90;;;;;;;16.88;68.39;94864.47;5009943;28;20246;-48
2022/12/06 11:51:11;;;;;;;9.27;7.50;;;;;;;16.88;68.33;94845.56;5009259;28;20201;-49
2022/12/06 11:53:54;;;;;;;8.77;7.70;;;;;;;16.89;68.32;94854.94;5009648;28;20191;-48
2022/12/06 11:56:25;;;;;;;11.93;8.10;;;;;;;16.88;68.11;94845.56;5009399;28;20323;-47
2022/12/06 11:59:00;;;;;;;9.17;7.73;;;;;;;16.89;68.42;94837.66;5009460;28;20251;-47
2022/12/06 12:01:41;;;;;;;9.20;7.87;;;;;;;16.82;68.12;94821.22;5009397;28;20571;-48
2022/12/06 12:04:31;;;;;;;11.43;8.23;;;;;;;16.45;68.34;94757.38;5009508;28;20292;-47
2022/12/06 12:07:01;;;;;;;9.13;6.97;;;;;;;16.81;68.40;94827.38;5009997;28;20184;-48
2022/12/06 12:09:31;;;;;;;9.70;6.57;;;;;;;16.75;68.54;94826.28;5009339;28;20582;-47